sensor_id;sensor_type;location;lat;lon;timestamp;pressure;altitude;pressure_sealevel;temperature;humidity
56600;BME280;51832;48.152;11.530;2024-02-15T00:01:49;95984.41;;;12.15;76.35
56600;BME280;51832;48.152;11.530;2024-02-15T00:06:50;95984.53;;;12.20;74.93
56600;BME280;51832;48.152;11.530;2024-02-15T00:11:50;95985.22;;;12.15;75.77
56600;BME280;51832;48.152;11.530;2024-02-15T00:16:51;95979.69;;;12.17;74.99
56600;BME280;51832;48.152;11.530;2024-02-15T00:21:51;95977.59;;;12.25;73.83
56600;BME280;51832;48.152;11.530;2024-02-15T00:26:52;95978.19;;;12.27;74.44
56600;BME280;51832;48.152;11.530;2024-02-15T00:31:53;95981.78;;;11.90;74.80
56600;BME280;51832;48.152;11.530;2024-02-15T00:36:55;95975.88;;;11.94;74.71
56600;BME280;51832;48.152;11.530;2024-02-15T00:41:55;95979.31;;;11.95;74.93
56600;BME280;51832;48.152;11.530;2024-02-15T00:46:55;95971.00;;;11.91;74.89
56600;BME280;51832;48.152;11.530;2024-02-15T00:51:56;95968.44;;;11.85;74.22
56600;BME280;51832;48.152;11.530;2024-02-15T00:56:56;95978.31;;;11.64;75.27
56600;BME280;51832;48.152;11.530;2024-02-15T01:01:57;95967.91;;;11.76;75.45
56600;BME280;51832;48.152;11.530;2024-02-15T01:06:57;95973.06;;;11.89;74.79
56600;BME280;51832;48.152;11.530;2024-02-15T01:11:58;95976.38;;;11.85;75.69
56600;BME280;51832;48.152;11.530;2024-02-15T01:16:58;95973.59;;;11.73;76.06
56600;BME280;51832;48.152;11.530;2024-02-15T01:21:59;95975.97;;;11.81;75.34
56600;BME280;51832;48.152;11.530;2024-02-15T01:26:59;95973.97;;;12.01;74.71
56600;BME280;51832;48.152;11.530;2024-02-15T01:32:00;95972.00;;;11.97;74.87
56600;BME280;51832;48.152;11.530;2024-02-15T01:37:02;95974.38;;;11.80;76.50
56600;BME280;51832;48.152;11.530;2024-02-15T01:42:03;95967.00;;;11.89;75.59
56600;BME280;51832;48.152;11.530;2024-02-15T01:47:03;95958.22;;;11.95;75.32
56600;BME280;51832;48.152;11.530;2024-02-15T01:52:06;95965.94;;;11.90;75.06
56600;BME280;51832;48.152;11.530;2024-02-15T01:57:09;95959.78;;;11.78;75.65
56600;BME280;51832;48.152;11.530;2024-02-15T02:02:10;95962.88;;;11.68;76.21
56600;BME280;51832;48.152;11.530;2024-02-15T02:07:13;95953.38;;;11.92;74.77
56600;BME280;51832;48.152;11.530;2024-02-15T02:12:14;95946.25;;;11.92;74.94
56600;BME280;51832;48.152;11.530;2024-02-15T02:17:15;95943.16;;;11.77;75.52
56600;BME280;51832;48.152;11.530;2024-02-15T02:22:17;95947.97;;;11.87;74.86
56600;BME280;51832;48.152;11.530;2024-02-15T02:27:19;95943.25;;;11.64;75.53
56600;BME280;51832;48.152;11.530;2024-02-15T02:32:20;95944.00;;;11.71;75.57
56600;BME280;51832;48.152;11.530;2024-02-15T02:37:21;95939.28;;;11.80;75.53
56600;BME280;51832;48.152;11.530;2024-02-15T02:42:22;95948.56;;;11.89;74.40
56600;BME280;51832;48.152;11.530;2024-02-15T02:47:23;95942.81;;;11.67;75.40
56600;BME280;51832;48.152;11.530;2024-02-15T02:52:23;95947.19;;;11.80;74.42
56600;BME280;51832;48.152;11.530;2024-02-15T02:57:24;95933.16;;;11.61;75.30
56600;BME280;51832;48.152;11.530;2024-02-15T03:02:24;95935.03;;;11.79;74.49
56600;BME280;51832;48.152;11.530;2024-02-15T03:07:24;95935.72;;;11.92;74.55
56600;BME280;51832;48.152;11.530;2024-02-15T03:12:26;95931.25;;;11.93;74.12
56600;BME280;51832;48.152;11.530;2024-02-15T03:17:26;95928.47;;;11.88;74.29
56600;BME280;51832;48.152;11.530;2024-02-15T03:22:28;95938.69;;;11.78;74.18
56600;BME280;51832;48.152;11.530;2024-02-15T03:27:29;95937.25;;;11.82;74.71
56600;BME280;51832;48.152;11.530;2024-02-15T03:32:30;95940.47;;;11.84;74.55
56600;BME280;51832;48.152;11.530;2024-02-15T03:37:30;95935.59;;;11.87;73.90
56600;BME280;51832;48.152;11.530;2024-02-15T03:42:31;95941.38;;;11.71;74.36
56600;BME280;51832;48.152;11.530;2024-02-15T03:47:32;95940.78;;;11.69;74.91
56600;BME280;51832;48.152;11.530;2024-02-15T03:52:37;95937.63;;;11.85;73.33
56600;BME280;51832;48.152;11.530;2024-02-15T03:57:39;95942.59;;;11.68;73.76
56600;BME280;51832;48.152;11.530;2024-02-15T04:02:46;95948.59;;;11.57;73.90
56600;BME280;51832;48.152;11.530;2024-02-15T04:07:49;95944.13;;;11.58;73.48
56600;BME280;51832;48.152;11.530;2024-02-15T04:12:49;95936.69;;;11.48;73.69
56600;BME280;51832;48.152;11.530;2024-02-15T04:17:50;95936.03;;;11.53;73.34
56600;BME280;51832;48.152;11.530;2024-02-15T04:22:56;95950.00;;;11.60;73.70
56600;BME280;51832;48.152;11.530;2024-02-15T04:27:58;95951.84;;;11.53;73.30
56600;BME280;51832;48.152;11.530;2024-02-15T04:33:04;95945.03;;;11.45;74.36
56600;BME280;51832;48.152;11.530;2024-02-15T04:38:08;95961.16;;;11.55;74.66
56600;BME280;51832;48.152;11.530;2024-02-15T04:43:09;95946.19;;;11.49;74.59
56600;BME280;51832;48.152;11.530;2024-02-15T04:48:09;95945.69;;;12.08;97.89
56600;BME280;51832;48.152;11.530;2024-02-15T04:53:11;95955.38;;;12.99;81.54
56600;BME280;51832;48.152;11.530;2024-02-15T04:58:11;95947.41;;;13.59;79.79
56600;BME280;51832;48.152;11.530;2024-02-15T05:03:11;95944.91;;;13.87;74.78
56600;BME280;51832;48.152;11.530;2024-02-15T05:08:12;95947.81;;;13.33;66.76
56600;BME280;51832;48.152;11.530;2024-02-15T05:13:13;95953.03;;;12.25;70.49
56600;BME280;51832;48.152;11.530;2024-02-15T05:18:15;95935.78;;;11.61;73.64
56600;BME280;51832;48.152;11.530;2024-02-15T05:23:17;95933.88;;;11.18;75.84
56600;BME280;51832;48.152;11.530;2024-02-15T05:28:18;95938.22;;;11.06;76.47
56600;BME280;51832;48.152;11.530;2024-02-15T05:33:18;95928.63;;;10.80;76.77
56600;BME280;51832;48.152;11.530;2024-02-15T05:38:19;95936.75;;;10.79;76.11
56600;BME280;51832;48.152;11.530;2024-02-15T05:43:19;95934.13;;;10.79;75.86
56600;BME280;51832;48.152;11.530;2024-02-15T05:48:20;95937.59;;;10.73;76.52
56600;BME280;51832;48.152;11.530;2024-02-15T05:53:21;95935.03;;;10.59;76.42
56600;BME280;51832;48.152;11.530;2024-02-15T05:58:22;95938.47;;;10.53;77.29
56600;BME280;51832;48.152;11.530;2024-02-15T06:03:22;95934.28;;;10.46;77.24
56600;BME280;51832;48.152;11.530;2024-02-15T06:08:29;95931.50;;;10.27;77.71
56600;BME280;51832;48.152;11.530;2024-02-15T06:13:30;95931.28;;;10.36;77.44
56600;BME280;51832;48.152;11.530;2024-02-15T06:18:31;95934.56;;;10.24;77.79
56600;BME280;51832;48.152;11.530;2024-02-15T06:23:33;95941.63;;;10.30;77.72
56600;BME280;51832;48.152;11.530;2024-02-15T06:28:33;95951.34;;;10.17;77.75
56600;BME280;51832;48.152;11.530;2024-02-15T06:33:52;95952.97;;;10.24;77.06
56600;BME280;51832;48.152;11.530;2024-02-15T06:39:11;95954.72;;;10.44;77.23
56600;BME280;51832;48.152;11.530;2024-02-15T06:44:30;95964.28;;;10.38;76.74
56600;BME280;51832;48.152;11.530;2024-02-15T06:49:31;95962.59;;;10.50;75.97
56600;BME280;51832;48.152;11.530;2024-02-15T06:54:34;95968.19;;;10.67;74.89
56600;BME280;51832;48.152;11.530;2024-02-15T06:59:35;95965.44;;;10.49;76.57
56600;BME280;51832;48.152;11.530;2024-02-15T07:04:37;95973.06;;;10.63;74.86
56600;BME280;51832;48.152;11.530;2024-02-15T07:09:38;95964.63;;;10.93;74.72
56600;BME280;51832;48.152;11.530;2024-02-15T07:14:39;95958.31;;;10.94;74.83
56600;BME280;51832;48.152;11.530;2024-02-15T07:19:43;95960.34;;;10.98;74.21
56600;BME280;51832;48.152;11.530;2024-02-15T07:24:44;95957.31;;;10.95;74.04
56600;BME280;51832;48.152;11.530;2024-02-15T07:29:45;95961.88;;;11.13;73.23
56600;BME280;51832;48.152;11.530;2024-02-15T07:34:45;95959.78;;;11.21;72.77
56600;BME280;51832;48.152;11.530;2024-02-15T07:39:47;95965.00;;;11.28;71.79
56600;BME280;51832;48.152;11.530;2024-02-15T07:44:48;95959.38;;;11.49;70.51
56600;BME280;51832;48.152;11.530;2024-02-15T07:49:48;95950.03;;;11.28;69.37
56600;BME280;51832;48.152;11.530;2024-02-15T07:54:49;95943.53;;;11.56;68.47
56600;BME280;51832;48.152;11.530;2024-02-15T07:59:50;95942.56;;;11.75;67.78
56600;BME280;51832;48.152;11.530;2024-02-15T08:04:50;95943.50;;;12.05;64.90
56600;BME280;51832;48.152;11.530;2024-02-15T08:09:52;95932.56;;;11.84;66.06
56600;BME280;51832;48.152;11.530;2024-02-15T08:14:53;95948.03;;;12.17;65.15
56600;BME280;51832;48.152;11.530;2024-02-15T08:19:54;95928.72;;;12.23;64.84
56600;BME280;51832;48.152;11.530;2024-02-15T08:24:55;95921.50;;;12.48;64.44
56600;BME280;51832;48.152;11.530;2024-02-15T08:29:55;95920.47;;;12.67;63.79
56600;BME280;51832;48.152;11.530;2024-02-15T08:34:56;95919.78;;;12.72;63.69
56600;BME280;51832;48.152;11.530;2024-02-15T08:39:56;95923.81;;;13.46;61.26
56600;BME280;51832;48.152;11.530;2024-02-15T08:44:57;95917.88;;;13.74;59.90
56600;BME280;51832;48.152;11.530;2024-02-15T08:49:59;95902.22;;;14.19;57.72
56600;BME280;51832;48.152;11.530;2024-02-15T08:55:00;95903.38;;;14.63;57.18
56600;BME280;51832;48.152;11.530;2024-02-15T09:00:04;95900.94;;;15.02;55.83
56600;BME280;51832;48.152;11.530;2024-02-15T09:05:13;95899.88;;;15.19;54.73
56600;BME280;51832;48.152;11.530;2024-02-15T09:10:17;95907.41;;;15.39;53.82
56600;BME280;51832;48.152;11.530;2024-02-15T09:15:18;95904.66;;;15.34;55.52
56600;BME280;51832;48.152;11.530;2024-02-15T09:20:19;95908.44;;;15.38;55.57
56600;BME280;51832;48.152;11.530;2024-02-15T09:25:20;95888.81;;;15.22;57.39
56600;BME280;51832;48.152;11.530;2024-02-15T09:30:23;95894.53;;;15.48;57.10
56600;BME280;51832;48.152;11.530;2024-02-15T09:35:26;95885.41;;;15.55;57.27
56600;BME280;51832;48.152;11.530;2024-02-15T09:40:27;95876.13;;;15.75;57.47
56600;BME280;51832;48.152;11.530;2024-02-15T09:45:29;95867.22;;;16.03;57.08
56600;BME280;51832;48.152;11.530;2024-02-15T09:50:31;95867.03;;;15.87;57.19
56600;BME280;51832;48.152;11.530;2024-02-15T09:55:35;95851.56;;;16.01;56.22
56600;BME280;51832;48.152;11.530;2024-02-15T10:00:36;95839.09;;;16.23;56.91
56600;BME280;51832;48.152;11.530;2024-02-15T10:05:36;95854.28;;;15.84;59.77
56600;BME280;51832;48.152;11.530;2024-02-15T10:10:39;95854.03;;;16.29;58.26
56600;BME280;51832;48.152;11.530;2024-02-15T10:15:40;95850.13;;;16.15;58.31
56600;BME280;51832;48.152;11.530;2024-02-15T10:20:41;95848.56;;;16.36;58.15
56600;BME280;51832;48.152;11.530;2024-02-15T10:25:44;95846.56;;;16.48;57.97
56600;BME280;51832;48.152;11.530;2024-02-15T10:30:45;95835.00;;;16.59;57.73
56600;BME280;51832;48.152;11.530;2024-02-15T10:35:48;95832.41;;;16.43;58.63
56600;BME280;51832;48.152;11.530;2024-02-15T10:40:48;95824.38;;;16.59;57.28
56600;BME280;51832;48.152;11.530;2024-02-15T10:45:50;95816.50;;;16.64;57.42
56600;BME280;51832;48.152;11.530;2024-02-15T10:50:53;95803.78;;;16.72;56.16
56600;BME280;51832;48.152;11.530;2024-02-15T11:01:06;95800.63;;;17.38;54.18
56600;BME280;51832;48.152;11.530;2024-02-15T11:06:09;95780.00;;;17.56;53.79
56600;BME280;51832;48.152;11.530;2024-02-15T11:11:10;95769.22;;;17.72;53.41
56600;BME280;51832;48.152;11.530;2024-02-15T11:16:41;95767.88;;;17.70;53.95
56600;BME280;51832;48.152;11.530;2024-02-15T11:21:56;95749.91;;;18.07;53.44
56600;BME280;51832;48.152;11.530;2024-02-15T11:27:01;95750.28;;;18.41;52.45
56600;BME280;51832;48.152;11.530;2024-02-15T11:32:03;95733.97;;;18.23;52.45
56600;BME280;51832;48.152;11.530;2024-02-15T11:37:05;95739.41;;;18.63;51.37
56600;BME280;51832;48.152;11.530;2024-02-15T11:42:25;95726.84;;;18.48;52.64
56600;BME280;51832;48.152;11.530;2024-02-15T11:47:29;95715.72;;;18.82;51.56
56600;BME280;51832;48.152;11.530;2024-02-15T11:52:31;95705.00;;;19.23;49.96
56600;BME280;51832;48.152;11.530;2024-02-15T11:57:31;95706.31;;;19.35;48.35
56600;BME280;51832;48.152;11.530;2024-02-15T12:02:39;95698.81;;;19.42;47.55
56600;BME280;51832;48.152;11.530;2024-02-15T12:07:58;95698.84;;;19.52;46.24
56600;BME280;51832;48.152;11.530;2024-02-15T12:13:18;95691.97;;;19.06;47.28
56600;BME280;51832;48.152;11.530;2024-02-15T12:18:37;95687.72;;;18.95;47.45
56600;BME280;51832;48.152;11.530;2024-02-15T12:23:45;95685.00;;;19.25;45.96
56600;BME280;51832;48.152;11.530;2024-02-15T12:28:53;95664.94;;;19.53;45.47
56600;BME280;51832;48.152;11.530;2024-02-15T12:34:04;95655.09;;;19.28;45.67
56600;BME280;51832;48.152;11.530;2024-02-15T12:39:08;95654.00;;;19.49;45.51
56600;BME280;51832;48.152;11.530;2024-02-15T12:44:16;95659.22;;;19.80;43.29
56600;BME280;51832;48.152;11.530;2024-02-15T12:54:23;95640.91;;;20.80;41.78
56600;BME280;51832;48.152;11.530;2024-02-15T12:59:24;95637.03;;;20.29;41.60
56600;BME280;51832;48.152;11.530;2024-02-15T13:04:24;95627.50;;;20.56;41.64
56600;BME280;51832;48.152;11.530;2024-02-15T13:09:25;95624.19;;;20.70;41.18
56600;BME280;51832;48.152;11.530;2024-02-15T13:14:27;95626.88;;;20.65;41.19
56600;BME280;51832;48.152;11.530;2024-02-15T13:19:29;95615.72;;;20.57;40.88
56600;BME280;51832;48.152;11.530;2024-02-15T13:24:31;95608.16;;;20.93;40.27
56600;BME280;51832;48.152;11.530;2024-02-15T13:29:32;95608.91;;;21.28;45.94
56600;BME280;51832;48.152;11.530;2024-02-15T13:34:33;95598.19;;;21.52;39.84
56600;BME280;51832;48.152;11.530;2024-02-15T13:39:33;95606.59;;;21.45;40.02
56600;BME280;51832;48.152;11.530;2024-02-15T13:44:34;95597.47;;;21.65;40.18
56600;BME280;51832;48.152;11.530;2024-02-15T13:49:34;95595.88;;;22.07;38.86
56600;BME280;51832;48.152;11.530;2024-02-15T13:54:34;95587.31;;;22.56;37.59
56600;BME280;51832;48.152;11.530;2024-02-15T13:59:35;95582.28;;;23.28;35.96
56600;BME280;51832;48.152;11.530;2024-02-15T14:04:35;95580.81;;;23.63;35.61
56600;BME280;51832;48.152;11.530;2024-02-15T14:09:36;95587.69;;;24.05;35.32
56600;BME280;51832;48.152;11.530;2024-02-15T14:14:39;95582.84;;;25.44;32.21
56600;BME280;51832;48.152;11.530;2024-02-15T14:19:40;95578.06;;;26.24;30.52
56600;BME280;51832;48.152;11.530;2024-02-15T14:24:41;95581.53;;;28.74;26.76
56600;BME280;51832;48.152;11.530;2024-02-15T14:29:41;95578.84;;;30.56;23.74
56600;BME280;51832;48.152;11.530;2024-02-15T14:35:00;95575.03;;;31.17;22.48
56600;BME280;51832;48.152;11.530;2024-02-15T14:40:00;95570.22;;;31.41;21.96
56600;BME280;51832;48.152;11.530;2024-02-15T14:45:01;95564.81;;;30.82;22.01
56600;BME280;51832;48.152;11.530;2024-02-15T14:50:02;95577.47;;;29.25;24.19
56600;BME280;51832;48.152;11.530;2024-02-15T14:55:03;95578.38;;;29.05;23.96
56600;BME280;51832;48.152;11.530;2024-02-15T15:00:06;95569.72;;;29.72;23.70
56600;BME280;51832;48.152;11.530;2024-02-15T15:05:16;95571.69;;;27.74;25.75
56600;BME280;51832;48.152;11.530;2024-02-15T15:10:34;95565.84;;;26.70;27.32
56600;BME280;51832;48.152;11.530;2024-02-15T15:15:53;95559.03;;;26.03;27.59
56600;BME280;51832;48.152;11.530;2024-02-15T15:20:55;95559.19;;;25.90;29.01
56600;BME280;51832;48.152;11.530;2024-02-15T15:25:55;95565.41;;;24.04;32.58
56600;BME280;51832;48.152;11.530;2024-02-15T15:30:56;95551.97;;;23.00;35.96
56600;BME280;51832;48.152;11.530;2024-02-15T15:35:57;95548.91;;;22.60;36.58
56600;BME280;51832;48.152;11.530;2024-02-15T15:40:57;95554.19;;;22.14;38.32
56600;BME280;51832;48.152;11.530;2024-02-15T15:45:59;95549.72;;;21.72;39.17
56600;BME280;51832;48.152;11.530;2024-02-15T15:51:00;95548.44;;;21.46;39.99
56600;BME280;51832;48.152;11.530;2024-02-15T15:56:05;95546.59;;;21.22;41.09
56600;BME280;51832;48.152;11.530;2024-02-15T16:01:12;95539.25;;;21.09;41.66
56600;BME280;51832;48.152;11.530;2024-02-15T16:06:13;95537.31;;;20.91;41.89
56600;BME280;51832;48.152;11.530;2024-02-15T16:11:14;95534.63;;;20.67;43.27
56600;BME280;51832;48.152;11.530;2024-02-15T16:16:16;95538.69;;;20.31;44.58
56600;BME280;51832;48.152;11.530;2024-02-15T16:21:17;95539.59;;;20.16;44.81
56600;BME280;51832;48.152;11.530;2024-02-15T16:26:19;95538.44;;;19.93;45.63
56600;BME280;51832;48.152;11.530;2024-02-15T16:31:19;95535.56;;;19.84;46.55
56600;BME280;51832;48.152;11.530;2024-02-15T16:36:21;95541.56;;;19.66;46.88
56600;BME280;51832;48.152;11.530;2024-02-15T16:41:23;95541.09;;;19.44;47.63
56600;BME280;51832;48.152;11.530;2024-02-15T16:46:25;95548.63;;;19.32;47.67
56600;BME280;51832;48.152;11.530;2024-02-15T16:51:25;95544.47;;;19.10;49.07
56600;BME280;51832;48.152;11.530;2024-02-15T16:56:27;95552.78;;;18.99;49.32
56600;BME280;51832;48.152;11.530;2024-02-15T17:01:30;95550.94;;;18.94;49.68
56600;BME280;51832;48.152;11.530;2024-02-15T17:06:31;95552.56;;;18.85;49.85
56600;BME280;51832;48.152;11.530;2024-02-15T17:11:31;95545.13;;;18.67;51.03
56600;BME280;51832;48.152;11.530;2024-02-15T17:16:32;95540.59;;;18.57;51.29
56600;BME280;51832;48.152;11.530;2024-02-15T17:21:32;95557.38;;;18.47;52.02
56600;BME280;51832;48.152;11.530;2024-02-15T17:26:34;95549.94;;;18.24;52.56
56600;BME280;51832;48.152;11.530;2024-02-15T17:31:35;95552.06;;;18.22;53.07
56600;BME280;51832;48.152;11.530;2024-02-15T17:36:35;95554.75;;;18.12;53.49
56600;BME280;51832;48.152;11.530;2024-02-15T17:41:36;95544.63;;;18.09;53.66
56600;BME280;51832;48.152;11.530;2024-02-15T17:46:38;95550.47;;;17.96;54.72
56600;BME280;51832;48.152;11.530;2024-02-15T17:51:39;95552.06;;;17.77;55.56
56600;BME280;51832;48.152;11.530;2024-02-15T17:56:43;95538.44;;;17.63;56.63
56600;BME280;51832;48.152;11.530;2024-02-15T18:01:44;95543.47;;;17.49;58.04
56600;BME280;51832;48.152;11.530;2024-02-15T18:06:44;95540.50;;;17.40;59.29
56600;BME280;51832;48.152;11.530;2024-02-15T18:11:45;95545.19;;;17.13;61.29
56600;BME280;51832;48.152;11.530;2024-02-15T18:16:45;95529.56;;;17.22;61.82
56600;BME280;51832;48.152;11.530;2024-02-15T18:21:50;95526.50;;;16.93;63.50
56600;BME280;51832;48.152;11.530;2024-02-15T18:26:50;95520.88;;;16.79;64.55
56600;BME280;51832;48.152;11.530;2024-02-15T18:31:53;95526.09;;;16.69;64.36
56600;BME280;51832;48.152;11.530;2024-02-15T18:36:53;95526.56;;;16.61;65.17
56600;BME280;51832;48.152;11.530;2024-02-15T18:41:54;95519.19;;;16.68;64.77
56600;BME280;51832;48.152;11.530;2024-02-15T18:46:55;95516.16;;;16.54;65.35
56600;BME280;51832;48.152;11.530;2024-02-15T18:51:56;95514.84;;;16.52;65.62
56600;BME280;51832;48.152;11.530;2024-02-15T18:56:56;95508.69;;;16.46;65.70
56600;BME280;51832;48.152;11.530;2024-02-15T19:01:56;95504.94;;;16.42;65.76
56600;BME280;51832;48.152;11.530;2024-02-15T19:06:57;95504.94;;;16.42;65.97
56600;BME280;51832;48.152;11.530;2024-02-15T19:11:57;95504.84;;;16.27;66.33
56600;BME280;51832;48.152;11.530;2024-02-15T19:17:00;95493.84;;;16.13;66.89
56600;BME280;51832;48.152;11.530;2024-02-15T19:22:00;95489.59;;;16.07;67.40
56600;BME280;51832;48.152;11.530;2024-02-15T19:27:00;95489.00;;;16.00;67.86
56600;BME280;51832;48.152;11.530;2024-02-15T19:32:01;95484.47;;;15.95;68.33
56600;BME280;51832;48.152;11.530;2024-02-15T19:37:01;95478.28;;;15.85;68.41
56600;BME280;51832;48.152;11.530;2024-02-15T19:42:04;95481.94;;;15.79;68.81
56600;BME280;51832;48.152;11.530;2024-02-15T19:47:05;95485.34;;;15.74;69.75
56600;BME280;51832;48.152;11.530;2024-02-15T19:52:05;95477.63;;;15.73;69.31
56600;BME280;51832;48.152;11.530;2024-02-15T19:57:09;95484.22;;;15.65;70.59
56600;BME280;51832;48.152;11.530;2024-02-15T20:02:09;95473.59;;;15.38;71.73
56600;BME280;51832;48.152;11.530;2024-02-15T20:07:10;95475.53;;;15.48;71.37
56600;BME280;51832;48.152;11.530;2024-02-15T20:12:10;95478.09;;;15.38;72.42
56600;BME280;51832;48.152;11.530;2024-02-15T20:17:11;95482.28;;;15.34;72.50
56600;BME280;51832;48.152;11.530;2024-02-15T20:22:13;95484.91;;;15.28;73.11
56600;BME280;51832;48.152;11.530;2024-02-15T20:27:14;95485.34;;;15.20;73.65
56600;BME280;51832;48.152;11.530;2024-02-15T20:32:19;95487.19;;;15.20;73.76
56600;BME280;51832;48.152;11.530;2024-02-15T20:37:21;95474.53;;;15.00;74.70
56600;BME280;51832;48.152;11.530;2024-02-15T20:42:23;95462.25;;;14.94;75.16
56600;BME280;51832;48.152;11.530;2024-02-15T20:52:25;95453.53;;;14.72;76.59
56600;BME280;51832;48.152;11.530;2024-02-15T20:57:26;95455.69;;;14.53;77.12
56600;BME280;51832;48.152;11.530;2024-02-15T21:02:27;95450.69;;;14.35;78.11
56600;BME280;51832;48.152;11.530;2024-02-15T21:07:31;95451.63;;;14.29;78.66
56600;BME280;51832;48.152;11.530;2024-02-15T21:12:32;95444.19;;;14.26;78.57
56600;BME280;51832;48.152;11.530;2024-02-15T21:17:32;95445.66;;;14.16;79.13
56600;BME280;51832;48.152;11.530;2024-02-15T21:22:33;95449.78;;;14.07;79.99
56600;BME280;51832;48.152;11.530;2024-02-15T21:27:34;95451.34;;;14.08;79.80
56600;BME280;51832;48.152;11.530;2024-02-15T21:32:34;95447.19;;;14.12;79.21
56600;BME280;51832;48.152;11.530;2024-02-15T21:37:35;95437.06;;;14.09;78.73
56600;BME280;51832;48.152;11.530;2024-02-15T21:42:35;95447.84;;;14.03;78.50
56600;BME280;51832;48.152;11.530;2024-02-15T21:47:36;95440.00;;;13.91;78.00
56600;BME280;51832;48.152;11.530;2024-02-15T21:52:37;95431.09;;;13.80;78.86
56600;BME280;51832;48.152;11.530;2024-02-15T21:57:37;95422.22;;;13.70;79.01
56600;BME280;51832;48.152;11.530;2024-02-15T22:02:38;95428.41;;;13.59;79.94
56600;BME280;51832;48.152;11.530;2024-02-15T22:07:39;95428.97;;;13.61;80.06
56600;BME280;51832;48.152;11.530;2024-02-15T22:12:40;95428.06;;;13.55;80.04
56600;BME280;51832;48.152;11.530;2024-02-15T22:17:40;95425.19;;;13.57;80.02
56600;BME280;51832;48.152;11.530;2024-02-15T22:22:41;95424.78;;;13.48;79.62
56600;BME280;51832;48.152;11.530;2024-02-15T22:27:45;95427.91;;;13.45;79.87
56600;BME280;51832;48.152;11.530;2024-02-15T22:32:45;95427.69;;;13.46;80.19
56600;BME280;51832;48.152;11.530;2024-02-15T22:37:46;95421.34;;;13.47;80.27
56600;BME280;51832;48.152;11.530;2024-02-15T22:42:47;95420.88;;;13.50;79.58
56600;BME280;51832;48.152;11.530;2024-02-15T22:47:48;95409.09;;;13.41;79.69
56600;BME280;51832;48.152;11.530;2024-02-15T22:52:48;95416.63;;;13.33;80.03
56600;BME280;51832;48.152;11.530;2024-02-15T22:57:50;95404.19;;;13.16;80.64
56600;BME280;51832;48.152;11.530;2024-02-15T23:02:50;95404.00;;;13.06;80.57
56600;BME280;51832;48.152;11.530;2024-02-15T23:07:51;95415.88;;;12.92;81.09
56600;BME280;51832;48.152;11.530;2024-02-15T23:12:51;95409.63;;;12.81;81.91
56600;BME280;51832;48.152;11.530;2024-02-15T23:17:52;95397.28;;;12.70;82.03
56600;BME280;51832;48.152;11.530;2024-02-15T23:22:53;95400.97;;;12.58;82.42
56600;BME280;51832;48.152;11.530;2024-02-15T23:27:53;95395.97;;;12.44;82.39
56600;BME280;51832;48.152;11.530;2024-02-15T23:32:54;95397.38;;;12.35;83.00
56600;BME280;51832;48.152;11.530;2024-02-15T23:37:56;95395.03;;;12.51;82.27
56600;BME280;51832;48.152;11.530;2024-02-15T23:43:15;95404.88;;;12.27;82.19
56600;BME280;51832;48.152;11.530;2024-02-15T23:48:15;95394.81;;;12.12;83.88
56600;BME280;51832;48.152;11.530;2024-02-15T23:53:16;95386.31;;;12.10;83.34
56600;BME280;51832;48.152;11.530;2024-02-15T23:58:17;95385.94;;;12.18;82.86
